createdAt,value
2022-09-03T00:00:12.663Z,17.38
2022-09-03T00:01:15.594Z,17.38
2022-09-03T00:02:19.084Z,17.38
2022-09-03T00:03:54.497Z,17.38
2022-09-03T00:05:06.164Z,17.38
2022-09-03T00:06:09.216Z,17.31
2022-09-03T00:07:44.219Z,17.38
2022-09-03T00:08:49.037Z,17.38
2022-09-03T00:09:52.733Z,17.38
2022-09-03T00:11:28.852Z,17.31
2022-09-03T00:12:32.064Z,17.31
2022-09-03T00:13:35.022Z,17.31
2022-09-03T00:15:09.859Z,17.25
2022-09-03T00:16:12.786Z,17.25
2022-09-03T00:17:15.819Z,17.25
2022-09-03T00:18:50.753Z,17.25
2022-09-03T00:19:53.787Z,17.25
2022-09-03T00:20:56.635Z,17.19
2022-09-03T00:22:31.349Z,17.19
2022-09-03T00:23:34.550Z,17.19
2022-09-03T00:24:37.551Z,17.19
2022-09-03T00:26:12.715Z,17.13
2022-09-03T00:27:15.603Z,17.13
2022-09-03T00:28:18.511Z,17.13
2022-09-03T00:29:53.719Z,17.13
2022-09-03T00:31:02.690Z,17.13
2022-09-03T00:32:06.168Z,17.13
2022-09-03T00:33:41.900Z,17.13
2022-09-03T00:34:44.874Z,17.13
2022-09-03T00:35:48.023Z,17.13
2022-09-03T00:37:22.831Z,17.06
2022-09-03T00:38:31.459Z,17.06
2022-09-03T00:39:34.380Z,17.06
2022-09-03T00:41:09.625Z,17.06
2022-09-03T00:42:12.714Z,17.06
2022-09-03T00:43:15.794Z,17.06
2022-09-03T00:44:52.749Z,17.06
2022-09-03T00:45:57.363Z,17.06
2022-09-03T00:47:01.140Z,17.06
2022-09-03T00:48:36.142Z,17.06
2022-09-03T00:49:43.766Z,17.00
2022-09-03T00:50:46.833Z,17.00
2022-09-03T00:52:23.175Z,16.94
2022-09-03T00:53:30.978Z,16.94
2022-09-03T00:54:34.406Z,16.94
2022-09-03T00:56:11.078Z,16.81
2022-09-03T00:57:14.315Z,16.81
2022-09-03T00:58:17.445Z,16.75
2022-09-03T00:59:52.598Z,16.75
2022-09-03T01:00:12.545Z,16.75
2022-09-03T01:01:15.745Z,16.75
2022-09-03T01:02:19.809Z,16.69
2022-09-03T01:03:56.075Z,16.69
2022-09-03T01:04:59.142Z,16.69
2022-09-03T01:06:03.851Z,16.75
2022-09-03T01:07:39.052Z,16.75
2022-09-03T01:08:42.228Z,16.75
2022-09-03T01:09:47.952Z,16.75
2022-09-03T01:11:23.023Z,16.75
2022-09-03T01:12:26.097Z,16.75
2022-09-03T01:13:29.291Z,16.75
2022-09-03T01:15:04.469Z,16.75
2022-09-03T01:16:08.057Z,16.75
2022-09-03T01:17:11.557Z,16.75
2022-09-03T01:18:46.670Z,16.75
2022-09-03T01:19:49.674Z,16.75
2022-09-03T01:20:52.848Z,16.75
2022-09-03T01:22:27.893Z,16.75
2022-09-03T01:23:32.491Z,16.75
2022-09-03T01:24:36.348Z,16.69
2022-09-03T01:26:13.291Z,16.63
2022-09-03T01:27:16.643Z,16.63
2022-09-03T01:28:19.747Z,16.56
2022-09-03T01:29:54.986Z,16.56
2022-09-03T01:30:58.072Z,16.56
2022-09-03T01:32:02.023Z,16.56
2022-09-03T01:33:36.877Z,16.63
2022-09-03T01:34:40.059Z,16.63
2022-09-03T01:35:43.209Z,16.63
2022-09-03T01:37:18.405Z,16.63
2022-09-03T01:38:21.786Z,16.63
2022-09-03T01:39:26.372Z,16.63
2022-09-03T01:41:02.074Z,16.63
2022-09-03T01:42:05.390Z,16.63
2022-09-03T01:43:12.955Z,16.63
2022-09-03T01:44:58.039Z,16.63
2022-09-03T01:46:01.236Z,16.63
2022-09-03T01:47:05.175Z,16.63
2022-09-03T01:48:42.802Z,16.63
2022-09-03T01:49:45.959Z,16.63
2022-09-03T01:50:49.155Z,16.63
2022-09-03T01:52:24.461Z,16.63
2022-09-03T01:53:27.847Z,16.63
2022-09-03T01:54:31.204Z,16.63
2022-09-03T01:56:06.541Z,16.63
2022-09-03T01:57:22.401Z,16.63
2022-09-03T01:58:39.603Z,16.63
2022-09-03T02:00:12.075Z,16.56
2022-09-03T02:01:15.188Z,16.56
2022-09-03T02:02:21.781Z,16.56
2022-09-03T02:03:57.509Z,16.56
2022-09-03T02:05:00.901Z,16.50
2022-09-03T02:06:04.133Z,16.50
2022-09-03T02:07:39.048Z,16.50
2022-09-03T02:08:42.391Z,16.44
2022-09-03T02:09:46.795Z,16.44
2022-09-03T02:11:23.793Z,16.50
2022-09-03T02:12:26.912Z,16.44
2022-09-03T02:13:30.230Z,16.44
2022-09-03T02:15:05.044Z,16.44
2022-09-03T02:16:08.373Z,16.44
2022-09-03T02:17:11.822Z,16.38
2022-09-03T02:18:46.893Z,16.38
2022-09-03T02:19:50.238Z,16.38
2022-09-03T02:20:53.386Z,16.38
2022-09-03T02:22:28.616Z,16.38
2022-09-03T02:23:31.703Z,16.38
2022-09-03T02:24:34.873Z,16.38
2022-09-03T02:26:09.835Z,16.31
2022-09-03T02:27:12.937Z,16.31
2022-09-03T02:28:17.115Z,16.31
2022-09-03T02:29:53.310Z,16.31
2022-09-03T02:30:56.347Z,16.31
2022-09-03T02:31:59.954Z,16.31
2022-09-03T02:33:35.051Z,16.31
2022-09-03T02:34:38.386Z,16.31
2022-09-03T02:35:41.526Z,16.25
2022-09-03T02:37:16.699Z,16.25
2022-09-03T02:38:19.981Z,16.25
2022-09-03T02:39:23.807Z,16.25
2022-09-03T02:41:03.842Z,16.25
2022-09-03T02:42:07.257Z,16.25
2022-09-03T02:43:11.993Z,16.25
2022-09-03T02:44:50.365Z,16.19
2022-09-03T02:45:54.230Z,16.19
2022-09-03T02:46:58.032Z,16.13
2022-09-03T02:48:33.467Z,16.13
2022-09-03T02:49:36.702Z,16.13
2022-09-03T02:50:39.976Z,16.13
2022-09-03T02:52:28.755Z,16.13
2022-09-03T02:53:32.126Z,16.13
2022-09-03T02:54:37.174Z,16.13
2022-09-03T02:56:11.924Z,16.13
2022-09-03T02:57:14.797Z,16.13
2022-09-03T02:58:25.261Z,16.13
2022-09-03T03:00:00.146Z,16.13
2022-09-03T03:00:12.917Z,16.13
2022-09-03T03:01:19.726Z,16.13
2022-09-03T03:02:36.203Z,16.13
2022-09-03T03:04:11.421Z,16.06
2022-09-03T03:05:14.331Z,16.06
2022-09-03T03:06:17.563Z,16.06
2022-09-03T03:07:54.718Z,16.00
2022-09-03T03:08:58.141Z,16.00
2022-09-03T03:10:00.968Z,15.94
2022-09-03T03:11:35.842Z,15.94
2022-09-03T03:12:38.710Z,15.94
2022-09-03T03:13:41.609Z,15.88
2022-09-03T03:15:16.377Z,15.88
2022-09-03T03:16:19.499Z,15.88
2022-09-03T03:17:23.259Z,15.88
2022-09-03T03:18:58.107Z,15.81
2022-09-03T03:20:01.038Z,15.81
2022-09-03T03:21:04.001Z,15.81
2022-09-03T03:22:38.652Z,15.81
2022-09-03T03:23:42.166Z,15.81
2022-09-03T03:24:45.447Z,15.81
2022-09-03T03:26:20.374Z,15.81
2022-09-03T03:27:25.214Z,15.81
2022-09-03T03:28:29.039Z,15.81
2022-09-03T03:30:04.473Z,15.75
2022-09-03T03:31:07.804Z,15.75
2022-09-03T03:32:11.187Z,15.75
2022-09-03T03:33:46.186Z,15.69
2022-09-03T03:34:49.128Z,15.69
2022-09-03T03:35:51.942Z,15.63
2022-09-03T03:37:28.438Z,15.63
2022-09-03T03:38:32.082Z,15.63
2022-09-03T03:39:35.248Z,15.63
2022-09-03T03:41:10.643Z,15.63
2022-09-03T03:42:13.590Z,15.63
2022-09-03T03:43:16.734Z,15.63
2022-09-03T03:44:51.810Z,15.63
2022-09-03T03:45:54.918Z,15.63
2022-09-03T03:46:58.597Z,15.63
2022-09-03T03:48:33.743Z,15.56
2022-09-03T03:49:36.998Z,15.56
2022-09-03T03:50:40.181Z,15.56
2022-09-03T03:52:15.177Z,15.56
2022-09-03T03:53:18.203Z,15.56
2022-09-03T03:54:21.370Z,15.56
2022-09-03T03:55:56.787Z,15.56
2022-09-03T03:57:00.154Z,15.50
2022-09-03T03:58:03.320Z,15.50
2022-09-03T03:59:38.733Z,15.50
2022-09-03T04:00:12.505Z,15.50
2022-09-03T04:01:16.553Z,15.50
2022-09-03T04:02:20.047Z,15.50
2022-09-03T04:03:59.051Z,15.44
2022-09-03T04:05:46.121Z,15.44
2022-09-03T04:06:51.632Z,15.44
2022-09-03T04:07:54.262Z,15.38
2022-09-03T04:09:30.661Z,15.38
2022-09-03T04:10:33.392Z,15.38
2022-09-03T04:11:36.237Z,15.38
2022-09-03T04:13:10.787Z,15.31
2022-09-03T04:14:13.711Z,15.31
2022-09-03T04:15:16.544Z,15.25
2022-09-03T04:16:51.436Z,15.25
2022-09-03T04:18:00.023Z,15.19
2022-09-03T04:19:02.912Z,15.19
2022-09-03T04:20:37.528Z,15.19
2022-09-03T04:21:40.091Z,15.19
2022-09-03T04:22:42.820Z,15.25
2022-09-03T04:24:20.919Z,15.25
2022-09-03T04:25:23.538Z,15.19
2022-09-03T04:26:26.335Z,15.19
2022-09-03T04:28:00.885Z,15.19
2022-09-03T04:29:05.931Z,15.13
2022-09-03T04:30:08.653Z,15.13
2022-09-03T04:31:46.649Z,15.13
2022-09-03T04:32:49.646Z,15.13
2022-09-03T04:34:02.373Z,15.13
2022-09-03T04:35:37.322Z,15.13
2022-09-03T04:36:40.098Z,15.06
2022-09-03T04:37:48.253Z,15.06
2022-09-03T04:39:22.698Z,15.06
2022-09-03T04:40:26.127Z,15.00
2022-09-03T04:41:28.827Z,15.00
2022-09-03T04:43:06.266Z,15.00
2022-09-03T04:44:09.142Z,15.00
2022-09-03T04:45:11.795Z,15.00
2022-09-03T04:46:53.081Z,14.94
2022-09-03T04:47:55.703Z,14.94
2022-09-03T04:48:58.724Z,14.94
2022-09-03T04:50:33.314Z,14.94
2022-09-03T04:51:36.046Z,14.88
2022-09-03T04:52:39.458Z,14.88
2022-09-03T04:54:20.198Z,14.88
2022-09-03T04:55:26.453Z,14.88
2022-09-03T04:56:29.181Z,14.88
2022-09-03T04:58:03.553Z,14.88
2022-09-03T04:59:08.220Z,14.88
2022-09-03T05:00:11.482Z,14.88
2022-09-03T05:01:15.232Z,14.81
2022-09-03T05:02:19.186Z,14.88
2022-09-03T05:03:55.800Z,14.81
2022-09-03T05:04:58.568Z,14.81
2022-09-03T05:06:01.457Z,14.81
2022-09-03T05:07:36.410Z,14.81
2022-09-03T05:08:39.160Z,14.81
2022-09-03T05:09:41.948Z,14.75
2022-09-03T05:11:16.576Z,14.75
2022-09-03T05:12:19.228Z,14.75
2022-09-03T05:13:21.959Z,14.75
2022-09-03T05:14:56.441Z,14.75
2022-09-03T05:15:59.587Z,14.75
2022-09-03T05:17:03.139Z,14.69
2022-09-03T05:18:41.606Z,14.69
2022-09-03T05:19:45.780Z,14.69
2022-09-03T05:20:48.588Z,14.63
2022-09-03T05:22:23.382Z,14.63
2022-09-03T05:23:26.154Z,14.63
2022-09-03T05:24:34.711Z,14.63
2022-09-03T05:26:11.162Z,14.69
2022-09-03T05:27:13.954Z,14.63
2022-09-03T05:28:16.745Z,14.63
2022-09-03T05:29:52.514Z,14.63
2022-09-03T05:30:55.165Z,14.63
2022-09-03T05:31:58.254Z,14.63
2022-09-03T05:33:33.063Z,14.63
2022-09-03T05:34:35.769Z,14.63
2022-09-03T05:35:38.373Z,14.63
2022-09-03T05:37:12.953Z,14.63
2022-09-03T05:38:15.668Z,14.63
2022-09-03T05:39:18.463Z,14.63
2022-09-03T05:40:53.529Z,14.63
2022-09-03T05:41:56.421Z,14.63
2022-09-03T05:42:59.070Z,14.63
2022-09-03T05:44:37.562Z,14.63
2022-09-03T05:45:41.620Z,14.63
2022-09-03T05:46:46.503Z,14.69
2022-09-03T05:48:20.968Z,14.69
2022-09-03T05:49:24.138Z,14.69
2022-09-03T05:50:26.991Z,14.75
2022-09-03T05:52:02.691Z,14.75
2022-09-03T05:53:05.347Z,14.75
2022-09-03T05:54:08.198Z,14.75
2022-09-03T05:55:48.250Z,14.75
2022-09-03T05:56:50.985Z,14.75
2022-09-03T05:57:53.748Z,14.75
2022-09-03T05:59:28.300Z,14.81
2022-09-03T06:00:12.411Z,14.81
2022-09-03T06:01:15.148Z,14.81
2022-09-03T06:02:26.659Z,14.88
2022-09-03T06:04:04.703Z,14.88
2022-09-03T06:05:08.102Z,14.88
2022-09-03T06:06:10.921Z,14.88
2022-09-03T06:07:45.359Z,14.88
2022-09-03T06:08:47.929Z,14.88
2022-09-03T06:09:50.655Z,14.94
2022-09-03T06:11:31.563Z,14.94
2022-09-03T06:12:44.117Z,14.94
2022-09-03T06:13:46.754Z,15.00
2022-09-03T06:15:21.381Z,15.00
2022-09-03T06:16:29.075Z,15.06
2022-09-03T06:17:35.632Z,15.06
2022-09-03T06:19:11.640Z,15.13
2022-09-03T06:20:14.400Z,15.19
2022-09-03T06:21:22.986Z,15.19
2022-09-03T06:22:57.395Z,15.25
2022-09-03T06:24:00.425Z,15.31
2022-09-03T06:25:09.375Z,15.38
2022-09-03T06:26:51.174Z,15.44
2022-09-03T06:27:55.035Z,15.44
2022-09-03T06:29:03.652Z,15.56
2022-09-03T06:30:38.261Z,15.56
2022-09-03T06:31:41.090Z,15.69
2022-09-03T06:32:44.486Z,15.69
2022-09-03T06:34:19.029Z,15.81
2022-09-03T06:35:21.712Z,15.81
2022-09-03T06:36:34.336Z,15.88
2022-09-03T06:38:08.837Z,15.94
2022-09-03T06:39:11.814Z,16.00
2022-09-03T06:40:15.308Z,16.00
2022-09-03T06:41:49.929Z,16.06
2022-09-03T06:42:52.580Z,16.13
2022-09-03T06:43:55.459Z,16.19
2022-09-03T06:45:30.516Z,16.25
2022-09-03T06:46:33.903Z,16.31
2022-09-03T06:47:36.581Z,16.31
2022-09-03T06:49:11.494Z,16.38
2022-09-03T06:50:15.755Z,16.44
2022-09-03T06:51:22.141Z,16.50
2022-09-03T06:52:56.825Z,16.50
2022-09-03T06:54:06.853Z,16.63
2022-09-03T06:55:09.554Z,16.63
2022-09-03T06:56:44.026Z,16.75
2022-09-03T06:57:46.931Z,16.75
2022-09-03T06:58:56.842Z,16.81
2022-09-03T07:00:12.153Z,16.81
2022-09-03T07:01:18.420Z,16.94
2022-09-03T07:02:25.361Z,16.94
2022-09-03T07:04:03.412Z,17.06
2022-09-03T07:05:06.709Z,17.13
2022-09-03T07:06:11.804Z,17.19
2022-09-03T07:07:46.578Z,17.25
2022-09-03T07:08:49.300Z,17.31
2022-09-03T07:09:51.966Z,17.38
2022-09-03T07:11:26.732Z,17.50
2022-09-03T07:12:29.498Z,17.56
2022-09-03T07:13:32.199Z,17.56
2022-09-03T07:15:07.834Z,17.69
2022-09-03T07:16:11.855Z,17.75
2022-09-03T07:17:16.136Z,17.81
2022-09-03T07:18:50.675Z,17.88
2022-09-03T07:19:53.448Z,17.94
2022-09-03T07:20:56.185Z,18.00
2022-09-03T07:22:35.491Z,18.06
2022-09-03T07:23:38.398Z,18.19
2022-09-03T07:24:41.304Z,18.25
2022-09-03T07:26:15.824Z,18.25
2022-09-03T07:27:18.705Z,18.13
2022-09-03T07:28:21.392Z,18.13
2022-09-03T07:29:56.506Z,18.06
2022-09-03T07:30:59.399Z,18.00
2022-09-03T07:32:02.317Z,18.00
2022-09-03T07:33:37.114Z,18.00
2022-09-03T07:34:40.573Z,17.94
2022-09-03T07:35:43.643Z,17.94
2022-09-03T07:37:23.796Z,17.94
2022-09-03T07:38:26.838Z,17.94
2022-09-03T07:39:29.634Z,18.00
2022-09-03T07:41:05.111Z,18.00
2022-09-03T07:42:20.149Z,18.00
2022-09-03T07:43:28.133Z,18.06
2022-09-03T07:45:02.796Z,18.06
2022-09-03T07:46:05.610Z,18.13
2022-09-03T07:47:08.595Z,18.13
2022-09-03T07:48:50.509Z,18.25
2022-09-03T07:49:53.258Z,18.25
2022-09-03T07:50:56.135Z,18.25
2022-09-03T07:52:30.781Z,18.31
2022-09-03T07:53:33.579Z,18.38
2022-09-03T07:54:36.342Z,18.38
2022-09-03T07:56:11.781Z,18.50
2022-09-03T07:57:14.695Z,18.56
2022-09-03T07:58:17.629Z,18.63
2022-09-03T07:59:52.520Z,18.75
2022-09-03T08:00:11.860Z,18.75
2022-09-03T08:01:15.257Z,18.81
2022-09-03T08:02:22.108Z,18.94
2022-09-03T08:04:03.166Z,19.13
2022-09-03T08:05:07.316Z,19.19
2022-09-03T08:06:10.516Z,19.25
2022-09-03T08:07:45.289Z,19.50
2022-09-03T08:08:55.873Z,19.56
2022-09-03T08:10:02.821Z,19.63
2022-09-03T08:11:37.893Z,19.75
2022-09-03T08:12:40.711Z,19.81
2022-09-03T08:13:43.571Z,19.88
2022-09-03T08:15:19.143Z,20.00
2022-09-03T08:16:22.242Z,20.06
2022-09-03T08:17:25.828Z,20.13
2022-09-03T08:19:10.584Z,20.19
2022-09-03T08:20:13.362Z,20.25
2022-09-03T08:21:16.660Z,20.31
2022-09-03T08:22:51.699Z,20.38
2022-09-03T08:23:54.553Z,20.44
2022-09-03T08:24:57.651Z,20.50
2022-09-03T08:26:37.255Z,20.56
2022-09-03T08:27:44.552Z,20.56
2022-09-03T08:28:47.489Z,20.56
2022-09-03T08:30:22.321Z,20.56
2022-09-03T08:31:25.195Z,20.56
2022-09-03T08:32:29.506Z,20.63
2022-09-03T08:34:06.177Z,20.63
2022-09-03T08:35:09.482Z,20.69
2022-09-03T08:36:12.516Z,20.69
2022-09-03T08:37:47.562Z,20.75
2022-09-03T08:38:57.050Z,20.81
2022-09-03T08:40:00.946Z,20.94
2022-09-03T08:41:36.499Z,21.00
2022-09-03T08:42:39.471Z,21.19
2022-09-03T08:43:47.383Z,21.25
2022-09-03T08:45:27.149Z,21.38
2022-09-03T08:46:30.065Z,21.44
2022-09-03T08:47:34.414Z,21.50
2022-09-03T08:49:12.195Z,21.63
2022-09-03T08:50:15.424Z,21.69
2022-09-03T08:51:18.357Z,21.69
2022-09-03T08:52:53.085Z,21.75
2022-09-03T08:53:56.231Z,21.81
2022-09-03T08:54:59.213Z,21.81
2022-09-03T08:56:34.808Z,21.81
2022-09-03T08:57:37.951Z,21.81
2022-09-03T08:58:41.109Z,21.88
2022-09-03T09:00:12.669Z,21.94
2022-09-03T09:01:16.395Z,22.00
2022-09-03T09:02:20.165Z,22.00
2022-09-03T09:03:56.430Z,22.00
2022-09-03T09:04:59.818Z,22.06
2022-09-03T09:06:06.834Z,22.19
2022-09-03T09:07:42.044Z,22.25
2022-09-03T09:08:45.119Z,22.25
2022-09-03T09:09:48.797Z,22.31
2022-09-03T09:11:23.582Z,22.44
2022-09-03T09:12:26.513Z,22.44
2022-09-03T09:13:43.136Z,22.50
2022-09-03T09:15:19.863Z,22.63
2022-09-03T09:16:23.097Z,22.69
2022-09-03T09:17:26.390Z,22.69
2022-09-03T09:19:02.282Z,22.75
2022-09-03T09:20:05.188Z,22.81
2022-09-03T09:21:08.519Z,22.81
2022-09-03T09:22:51.542Z,22.94
2022-09-03T09:23:56.699Z,22.94
2022-09-03T09:24:59.725Z,22.94
2022-09-03T09:26:34.884Z,23.06
2022-09-03T09:27:37.878Z,23.00
2022-09-03T09:28:41.060Z,23.00
2022-09-03T09:30:23.159Z,23.00
2022-09-03T09:31:27.347Z,23.00
2022-09-03T09:32:30.751Z,23.06
2022-09-03T09:34:07.246Z,23.06
2022-09-03T09:35:10.342Z,23.13
2022-09-03T09:36:13.405Z,23.19
2022-09-03T09:37:48.824Z,23.25
2022-09-03T09:38:51.959Z,23.25
2022-09-03T09:39:55.282Z,23.31
2022-09-03T09:41:31.530Z,23.38
2022-09-03T09:42:36.957Z,23.44
2022-09-03T09:43:39.835Z,23.50
2022-09-03T09:45:14.951Z,23.50
2022-09-03T09:46:18.124Z,23.50
2022-09-03T09:47:28.955Z,23.50
2022-09-03T09:49:04.200Z,23.50
2022-09-03T09:50:07.319Z,23.56
2022-09-03T09:51:23.887Z,23.56
2022-09-03T09:52:59.195Z,23.69
2022-09-03T09:54:02.418Z,23.69
2022-09-03T09:55:05.380Z,23.75
2022-09-03T09:56:40.100Z,23.88
2022-09-03T09:57:43.248Z,23.94
2022-09-03T09:58:49.634Z,24.00
2022-09-03T10:00:12.166Z,24.06
2022-09-03T10:01:15.195Z,24.13
2022-09-03T10:02:22.519Z,24.19
2022-09-03T10:03:58.050Z,24.19
2022-09-03T10:05:07.316Z,24.25
2022-09-03T10:06:10.466Z,24.31
2022-09-03T10:07:45.273Z,24.31
2022-09-03T10:08:48.096Z,24.31
2022-09-03T10:09:50.896Z,24.38
2022-09-03T10:11:26.206Z,24.50
2022-09-03T10:12:30.135Z,24.50
2022-09-03T10:13:33.166Z,24.50
2022-09-03T10:15:08.007Z,24.56
2022-09-03T10:16:11.359Z,24.63
2022-09-03T10:17:16.181Z,24.63
2022-09-03T10:19:12.476Z,24.75
2022-09-03T10:20:15.590Z,24.81
2022-09-03T10:21:18.501Z,24.88
2022-09-03T10:22:57.142Z,24.88
2022-09-03T10:24:02.644Z,25.00
2022-09-03T10:25:07.852Z,25.00
2022-09-03T10:26:42.962Z,25.06
2022-09-03T10:27:45.908Z,25.13
2022-09-03T10:28:56.788Z,25.19
2022-09-03T10:30:32.103Z,25.31
2022-09-03T10:31:35.876Z,25.31
2022-09-03T10:32:40.531Z,25.38
2022-09-03T10:34:18.092Z,25.44
2022-09-03T10:35:21.150Z,25.38
2022-09-03T10:36:24.025Z,25.38
2022-09-03T10:37:59.118Z,25.44
2022-09-03T10:39:03.346Z,25.44
2022-09-03T10:40:17.849Z,25.50
2022-09-03T10:41:53.715Z,25.56
2022-09-03T10:42:56.817Z,25.63
2022-09-03T10:43:59.875Z,25.56
2022-09-03T10:45:37.405Z,25.56
2022-09-03T10:46:42.489Z,25.50
2022-09-03T10:47:45.725Z,25.50
2022-09-03T10:49:20.896Z,25.44
2022-09-03T10:50:24.023Z,25.44
2022-09-03T10:51:27.129Z,25.44
2022-09-03T10:53:07.882Z,25.44
2022-09-03T10:54:11.089Z,25.50
2022-09-03T10:55:13.807Z,25.50
2022-09-03T10:56:48.504Z,25.44
2022-09-03T10:57:51.622Z,25.50
2022-09-03T10:58:54.638Z,25.56
2022-09-03T11:00:11.787Z,25.63
2022-09-03T11:01:15.015Z,25.69
2022-09-03T11:02:18.580Z,25.75
2022-09-03T11:04:01.477Z,25.81
2022-09-03T11:05:06.825Z,25.88
2022-09-03T11:06:10.108Z,25.94
2022-09-03T11:07:45.410Z,26.00
2022-09-03T11:08:48.669Z,26.06
2022-09-03T11:09:58.370Z,26.06
2022-09-03T11:11:38.154Z,26.06
2022-09-03T11:12:41.358Z,26.00
2022-09-03T11:13:44.905Z,26.00
2022-09-03T11:15:20.023Z,26.13
2022-09-03T11:16:25.916Z,26.13
2022-09-03T11:17:29.773Z,26.13
2022-09-03T11:19:07.568Z,26.25
2022-09-03T11:20:10.869Z,26.25
2022-09-03T11:21:14.181Z,26.19
2022-09-03T11:22:55.656Z,26.19
2022-09-03T11:24:02.703Z,26.25
2022-09-03T11:25:06.053Z,26.50
2022-09-03T11:26:41.670Z,26.44
2022-09-03T11:27:44.975Z,26.38
2022-09-03T11:28:54.262Z,26.44
2022-09-03T11:30:31.080Z,26.38
2022-09-03T11:31:35.058Z,26.38
2022-09-03T11:32:38.568Z,26.44
2022-09-03T11:34:23.550Z,26.50
2022-09-03T11:35:36.119Z,26.50
2022-09-03T11:36:39.458Z,26.50
2022-09-03T11:38:17.751Z,26.50
2022-09-03T11:39:21.351Z,26.50
2022-09-03T11:40:25.426Z,26.56
2022-09-03T11:42:01.071Z,26.56
2022-09-03T11:43:04.402Z,26.56
2022-09-03T11:44:08.597Z,26.50
2022-09-03T11:45:51.610Z,26.56
2022-09-03T11:46:55.756Z,26.56
2022-09-03T11:47:59.147Z,26.63
2022-09-03T11:49:34.780Z,26.63
2022-09-03T11:50:38.241Z,26.69
2022-09-03T11:51:41.558Z,26.75
2022-09-03T11:53:18.101Z,26.81
2022-09-03T11:54:22.709Z,26.81
2022-09-03T11:55:26.184Z,26.75
2022-09-03T11:57:09.506Z,26.75
2022-09-03T11:58:12.778Z,26.88
2022-09-03T11:59:16.097Z,26.88
2022-09-03T12:00:12.638Z,26.88
2022-09-03T12:01:16.426Z,26.94
2022-09-03T12:02:20.098Z,26.88
2022-09-03T12:04:05.417Z,26.88
2022-09-03T12:05:09.306Z,26.94
2022-09-03T12:06:12.584Z,27.06
2022-09-03T12:07:52.655Z,27.13
2022-09-03T12:09:01.113Z,27.06
2022-09-03T12:10:04.665Z,27.06
2022-09-03T12:11:40.676Z,27.06
2022-09-03T12:12:46.143Z,27.13
2022-09-03T12:13:49.637Z,27.19
2022-09-03T12:15:31.444Z,27.13
2022-09-03T12:16:35.632Z,27.13
2022-09-03T12:17:40.763Z,27.19
2022-09-03T12:19:16.243Z,27.31
2022-09-03T12:20:19.605Z,27.31
2022-09-03T12:21:23.134Z,27.38
2022-09-03T12:22:58.615Z,27.50
2022-09-03T12:24:01.994Z,27.56
2022-09-03T12:25:07.544Z,27.63
2022-09-03T12:26:47.187Z,27.69
2022-09-03T12:27:50.570Z,27.88
2022-09-03T12:28:53.940Z,28.00
2022-09-03T12:30:41.379Z,28.25
2022-09-03T12:31:47.966Z,28.25
2022-09-03T12:32:51.294Z,28.19
2022-09-03T12:34:27.020Z,28.19
2022-09-03T12:35:59.404Z,28.25
2022-09-03T12:37:03.317Z,28.19
2022-09-03T12:41:23.458Z,28.00
2022-09-03T12:42:31.895Z,27.81
2022-09-03T12:44:25.122Z,27.75
2022-09-03T12:46:12.353Z,27.81
2022-09-03T12:48:10.524Z,27.88
2022-09-03T12:49:31.569Z,27.88
2022-09-03T12:52:58.426Z,27.94
2022-09-03T12:54:01.815Z,28.00
2022-09-03T12:55:37.479Z,28.13
2022-09-03T12:56:42.531Z,28.31
2022-09-03T12:57:46.817Z,28.44
2022-09-03T12:59:34.328Z,28.50
2022-09-03T13:00:12.479Z,28.50
2022-09-03T13:01:16.006Z,28.50
2022-09-03T13:02:20.432Z,28.56
2022-09-03T13:03:55.959Z,28.50
2022-09-03T13:05:02.335Z,28.50
2022-09-03T13:06:06.556Z,28.44
2022-09-03T13:07:44.858Z,28.19
2022-09-03T13:08:47.863Z,28.13
2022-09-03T13:09:50.671Z,28.13
2022-09-03T13:11:25.560Z,28.06
2022-09-03T13:12:28.427Z,27.94
2022-09-03T13:13:39.103Z,27.81
2022-09-03T13:15:14.359Z,27.81
2022-09-03T13:16:17.252Z,27.88
2022-09-03T13:17:20.617Z,28.00
2022-09-03T13:18:54.977Z,28.13
2022-09-03T13:19:57.718Z,28.13
2022-09-03T13:21:00.577Z,28.19
2022-09-03T13:22:35.069Z,28.19
2022-09-03T13:23:37.860Z,28.19
2022-09-03T13:24:40.724Z,28.13
2022-09-03T13:26:18.550Z,27.94
2022-09-03T13:27:21.236Z,27.88
2022-09-03T13:28:23.931Z,27.88
2022-09-03T13:29:58.270Z,28.00
2022-09-03T13:31:01.169Z,28.13
2022-09-03T13:32:06.214Z,28.25
2022-09-03T13:33:42.960Z,28.38
2022-09-03T13:34:46.024Z,28.44
2022-09-03T13:35:48.819Z,28.50
2022-09-03T13:37:23.477Z,28.38
2022-09-03T13:38:26.457Z,28.38
2022-09-03T13:39:34.579Z,28.25
2022-09-03T13:41:09.594Z,28.31
2022-09-03T13:42:18.300Z,28.38
2022-09-03T13:43:25.671Z,28.31
2022-09-03T13:45:00.751Z,28.31
2022-09-03T13:46:03.723Z,28.44
2022-09-03T13:47:06.985Z,28.56
2022-09-03T13:48:43.280Z,28.75
2022-09-03T13:49:45.935Z,28.75
2022-09-03T13:50:49.360Z,28.69
2022-09-03T13:52:28.819Z,28.63
2022-09-03T13:53:31.815Z,28.56
2022-09-03T13:54:48.775Z,28.44
2022-09-03T13:56:24.355Z,28.25
2022-09-03T13:57:29.952Z,28.00
2022-09-03T13:58:37.019Z,27.94
2022-09-03T14:00:11.735Z,27.75
2022-09-03T14:01:15.581Z,27.69
2022-09-03T14:02:21.134Z,27.56
2022-09-03T14:03:56.288Z,27.56
2022-09-03T14:04:59.077Z,27.63
2022-09-03T14:06:01.964Z,27.56
2022-09-03T14:07:37.925Z,27.75
2022-09-03T14:08:40.683Z,27.81
2022-09-03T14:09:50.337Z,27.81
2022-09-03T14:11:25.215Z,27.88
2022-09-03T14:12:28.169Z,27.88
2022-09-03T14:13:31.098Z,27.81
2022-09-03T14:15:06.035Z,27.81
2022-09-03T14:16:09.190Z,27.75
2022-09-03T14:17:12.515Z,27.75
2022-09-03T14:18:47.084Z,27.69
2022-09-03T14:19:51.506Z,27.63
2022-09-03T14:20:54.529Z,27.69
2022-09-03T14:22:29.302Z,27.75
2022-09-03T14:23:32.244Z,27.75
2022-09-03T14:24:35.230Z,27.75
2022-09-03T14:26:10.303Z,27.75
2022-09-03T14:27:30.176Z,27.69
2022-09-03T14:28:33.191Z,27.63
2022-09-03T14:30:08.094Z,27.56
2022-09-03T14:31:11.073Z,27.50
2022-09-03T14:32:14.281Z,27.44
2022-09-03T14:33:55.087Z,27.44
2022-09-03T14:34:57.876Z,27.56
2022-09-03T14:36:00.771Z,27.69
2022-09-03T14:37:37.189Z,27.88
2022-09-03T14:38:40.519Z,28.06
2022-09-03T14:39:43.621Z,28.13
2022-09-03T14:41:25.933Z,28.25
2022-09-03T14:42:28.721Z,28.31
2022-09-03T14:43:31.631Z,28.44
2022-09-03T14:45:07.538Z,28.50
2022-09-03T14:46:10.479Z,28.56
2022-09-03T14:47:13.804Z,28.56
2022-09-03T14:48:48.708Z,28.63
2022-09-03T14:49:51.504Z,28.63
2022-09-03T14:50:55.632Z,28.56
2022-09-03T14:52:38.320Z,28.44
2022-09-03T14:53:41.226Z,28.38
2022-09-03T14:54:44.556Z,28.38
2022-09-03T14:56:19.407Z,28.19
2022-09-03T14:57:22.223Z,28.13
2022-09-03T14:58:25.143Z,28.19
2022-09-03T15:00:20.214Z,28.25
2022-09-03T15:01:23.773Z,28.31
2022-09-03T15:02:33.384Z,28.38
2022-09-03T15:04:09.449Z,28.44
2022-09-03T15:05:12.433Z,28.50
2022-09-03T15:06:15.617Z,28.56
2022-09-03T15:08:00.285Z,28.63
2022-09-03T15:09:03.169Z,28.69
2022-09-03T15:10:06.252Z,28.88
2022-09-03T15:11:42.997Z,28.94
2022-09-03T15:12:46.006Z,28.94
2022-09-03T15:13:51.056Z,28.94
2022-09-03T15:15:27.910Z,28.94
2022-09-03T15:16:31.796Z,28.81
2022-09-03T15:17:35.436Z,28.75
2022-09-03T15:19:10.502Z,28.63
2022-09-03T15:20:13.543Z,28.56
2022-09-03T15:21:16.534Z,28.38
2022-09-03T15:22:51.625Z,28.19
2022-09-03T15:23:55.688Z,28.06
2022-09-03T15:24:58.626Z,27.94
2022-09-03T15:26:33.781Z,27.75
2022-09-03T15:27:37.028Z,27.69
2022-09-03T15:28:40.349Z,27.69
2022-09-03T15:30:15.347Z,27.50
2022-09-03T15:31:18.530Z,27.38
2022-09-03T15:32:22.193Z,27.25
2022-09-03T15:33:57.309Z,27.00
2022-09-03T15:35:00.266Z,26.94
2022-09-03T15:36:04.477Z,26.81
2022-09-03T15:37:42.328Z,26.81
2022-09-03T15:38:45.690Z,26.81
2022-09-03T15:39:48.895Z,26.75
2022-09-03T15:41:26.976Z,26.75
2022-09-03T15:42:29.929Z,26.69
2022-09-03T15:43:35.148Z,26.69
2022-09-03T15:45:10.247Z,26.63
2022-09-03T15:46:13.888Z,26.56
2022-09-03T15:47:17.035Z,26.50
2022-09-03T15:49:16.037Z,26.44
2022-09-03T15:50:19.028Z,26.38
2022-09-03T15:51:26.804Z,26.31
2022-09-03T15:53:01.860Z,26.31
2022-09-03T15:54:06.394Z,26.25
2022-09-03T15:55:09.424Z,26.25
2022-09-03T15:56:48.808Z,26.25
2022-09-03T15:57:51.898Z,26.25
2022-09-03T15:59:01.462Z,26.25
2022-09-03T16:00:12.202Z,26.31
2022-09-03T16:01:19.335Z,26.38
2022-09-03T16:02:22.598Z,26.38
2022-09-03T16:04:05.149Z,26.38
2022-09-03T16:05:41.328Z,26.31
2022-09-03T16:06:47.471Z,26.25